createdAt,value
2023-03-26T00:00:54.340Z,7.70
2023-03-26T00:03:23.307Z,8.26
2023-03-26T00:05:50.427Z,8.59
2023-03-26T00:08:17.991Z,8.59
2023-03-26T00:10:45.082Z,8.69
2023-03-26T00:13:12.119Z,8.47
2023-03-26T00:15:39.389Z,8.97
2023-03-26T00:18:06.578Z,9.45
2023-03-26T00:20:33.613Z,10.13
2023-03-26T00:23:01.697Z,10.06
2023-03-26T00:25:28.847Z,10.52
2023-03-26T00:27:55.861Z,9.48
2023-03-26T00:30:23.305Z,9.21
2023-03-26T00:32:53.664Z,9.23
2023-03-26T00:35:22.504Z,9.83
2023-03-26T00:37:51.632Z,9.40
2023-03-26T00:40:19.252Z,9.93
2023-03-26T00:42:46.470Z,9.77
2023-03-26T00:45:13.716Z,9.84
2023-03-26T00:47:43.727Z,10.40
2023-03-26T00:50:15.692Z,10.01
2023-03-26T00:52:44.097Z,9.33
2023-03-26T00:55:11.239Z,10.13
2023-03-26T00:57:38.471Z,10.47
2023-03-26T01:00:11.447Z,10.68
2023-03-26T01:02:38.615Z,10.31
2023-03-26T01:05:42.897Z,11.00
2023-03-26T01:08:46.856Z,11.16
2023-03-26T01:11:20.943Z,10.45
2023-03-26T01:13:50.038Z,10.31
2023-03-26T01:16:34.584Z,10.77
2023-03-26T01:19:01.644Z,10.06
2023-03-26T01:21:30.534Z,10.71
2023-03-26T01:24:05.427Z,10.59
2023-03-26T01:26:47.841Z,9.58
2023-03-26T01:29:32.140Z,9.40
2023-03-26T01:32:22.770Z,10.06
2023-03-26T01:34:59.303Z,9.57
2023-03-26T01:37:46.964Z,10.07
2023-03-26T01:40:25.717Z,10.87
2023-03-26T01:43:13.982Z,10.05
2023-03-26T01:45:42.177Z,10.69
2023-03-26T01:48:09.519Z,9.65
2023-03-26T01:50:36.555Z,10.54
2023-03-26T01:53:03.967Z,10.24
2023-03-26T01:55:38.799Z,9.70
2023-03-26T01:58:17.665Z,10.30
2023-03-26T02:01:27.379Z,10.58
2023-03-26T02:04:02.060Z,10.55
2023-03-26T02:06:43.183Z,10.70
2023-03-26T02:09:13.665Z,10.97
2023-03-26T02:11:40.915Z,10.72
2023-03-26T02:14:08.345Z,10.22
2023-03-26T02:16:35.988Z,10.36
2023-03-26T02:19:04.555Z,10.27
2023-03-26T02:21:34.311Z,10.15
2023-03-26T02:24:04.439Z,10.08
2023-03-26T02:26:38.184Z,10.32
2023-03-26T02:29:09.008Z,9.38
2023-03-26T02:31:38.054Z,10.08
2023-03-26T02:34:05.329Z,10.30
2023-03-26T02:36:36.196Z,9.68
2023-03-26T02:39:04.705Z,9.89
2023-03-26T02:41:35.325Z,9.80
2023-03-26T02:44:06.873Z,10.25
2023-03-26T02:47:00.036Z,10.30
2023-03-26T02:49:46.160Z,10.28
2023-03-26T02:52:19.851Z,10.70
2023-03-26T02:54:49.259Z,10.78
2023-03-26T02:57:26.405Z,11.00
2023-03-26T03:00:15.465Z,11.09
2023-03-26T03:02:48.430Z,11.48
2023-03-26T03:05:31.717Z,11.47
2023-03-26T03:08:23.724Z,11.63
2023-03-26T03:11:12.591Z,10.91
2023-03-26T03:13:49.688Z,10.75
2023-03-26T03:16:20.727Z,10.91
2023-03-26T03:18:54.673Z,10.69
2023-03-26T03:21:23.674Z,11.05
2023-03-26T03:23:51.040Z,10.89
2023-03-26T03:26:21.823Z,10.63
2023-03-26T03:28:52.237Z,10.46
2023-03-26T03:31:19.348Z,10.66
2023-03-26T03:33:46.634Z,10.21
2023-03-26T03:36:20.164Z,9.99
2023-03-26T03:38:55.977Z,9.24
2023-03-26T03:41:24.059Z,8.67
2023-03-26T03:43:52.116Z,8.39
2023-03-26T03:46:25.959Z,8.15
2023-03-26T03:48:53.275Z,9.24
2023-03-26T03:51:35.291Z,9.61
2023-03-26T03:54:05.065Z,10.10
2023-03-26T03:56:49.115Z,9.17
2023-03-26T03:59:35.035Z,9.32
2023-03-26T04:02:05.518Z,8.83
2023-03-26T04:04:40.275Z,8.94
2023-03-26T04:07:11.266Z,9.09
2023-03-26T04:10:00.326Z,8.89
2023-03-26T04:12:32.022Z,8.97
2023-03-26T04:15:02.989Z,9.42
2023-03-26T04:17:31.217Z,9.67
2023-03-26T04:19:58.313Z,8.64
2023-03-26T04:22:34.829Z,9.35
2023-03-26T04:25:05.314Z,9.64
2023-03-26T04:27:38.253Z,8.84
2023-03-26T04:30:34.303Z,9.07
2023-03-26T04:33:10.565Z,8.40
2023-03-26T04:35:41.989Z,7.98
2023-03-26T04:38:11.038Z,9.12
2023-03-26T04:40:42.432Z,9.01
2023-03-26T04:43:31.355Z,9.50
2023-03-26T04:45:58.385Z,9.48
2023-03-26T04:48:27.935Z,8.99
2023-03-26T04:50:55.183Z,8.45
2023-03-26T04:53:24.618Z,8.69
2023-03-26T04:56:27.076Z,8.82
2023-03-26T04:59:30.279Z,7.32
2023-03-26T05:02:00.179Z,7.72
2023-03-26T05:04:30.622Z,7.92
2023-03-26T05:06:58.960Z,7.53
2023-03-26T05:09:41.951Z,8.52
2023-03-26T05:12:29.727Z,8.63
2023-03-26T05:15:02.480Z,8.12
2023-03-26T05:17:48.597Z,8.54
2023-03-26T05:20:36.135Z,8.72
2023-03-26T05:23:07.516Z,8.85
2023-03-26T05:25:37.598Z,9.36
2023-03-26T05:28:11.504Z,9.65
2023-03-26T05:30:47.606Z,9.19
2023-03-26T05:33:15.168Z,8.72
2023-03-26T05:36:00.260Z,8.89
2023-03-26T05:38:31.682Z,8.77
2023-03-26T05:41:06.564Z,9.23
2023-03-26T05:43:35.518Z,9.78
2023-03-26T05:46:34.626Z,10.26
2023-03-26T05:49:01.986Z,9.43
2023-03-26T05:51:33.542Z,8.87
2023-03-26T05:54:21.080Z,9.57
2023-03-26T05:57:06.905Z,10.16
2023-03-26T05:59:52.841Z,10.41
2023-03-26T06:02:39.102Z,10.77
2023-03-26T06:05:27.025Z,11.13
2023-03-26T06:08:07.231Z,11.13
2023-03-26T06:10:39.210Z,11.16
2023-03-26T06:13:06.517Z,11.32
2023-03-26T06:15:36.793Z,11.48
2023-03-26T06:18:14.558Z,11.61
2023-03-26T06:21:04.584Z,11.82
2023-03-26T06:24:00.894Z,11.36
2023-03-26T06:26:39.913Z,11.46
2023-03-26T06:29:25.934Z,10.60
2023-03-26T06:32:25.644Z,10.22
2023-03-26T06:34:57.381Z,10.47
2023-03-26T06:37:24.578Z,10.53
2023-03-26T06:39:57.319Z,10.88
2023-03-26T06:43:09.022Z,11.32
2023-03-26T06:45:52.412Z,11.07
2023-03-26T06:48:52.247Z,10.98
2023-03-26T06:51:31.755Z,11.25
2023-03-26T06:54:10.976Z,11.17
2023-03-26T06:56:48.585Z,11.05
2023-03-26T06:59:34.390Z,9.63
2023-03-26T07:02:20.141Z,10.29
2023-03-26T07:05:06.318Z,10.18
2023-03-26T07:07:52.019Z,10.62
2023-03-26T07:10:36.859Z,10.60
2023-03-26T07:13:09.996Z,9.89
2023-03-26T07:15:56.994Z,8.78
2023-03-26T07:18:55.316Z,8.95
2023-03-26T07:21:26.064Z,8.33
2023-03-26T07:23:55.084Z,7.81
2023-03-26T07:27:20.560Z,8.02
2023-03-26T07:30:09.773Z,8.16
2023-03-26T07:32:59.253Z,8.46
2023-03-26T07:36:01.497Z,8.37
2023-03-26T07:38:51.417Z,8.61
2023-03-26T07:42:09.107Z,8.68
2023-03-26T07:45:10.556Z,9.49
2023-03-26T07:47:45.423Z,10.47
2023-03-26T07:50:36.650Z,9.81
2023-03-26T07:53:04.295Z,9.82
2023-03-26T07:56:12.777Z,9.80
2023-03-26T07:59:18.596Z,9.72
2023-03-26T08:02:44.305Z,9.90
2023-03-26T08:05:53.481Z,10.16
2023-03-26T08:08:52.740Z,9.61
2023-03-26T08:12:01.724Z,10.42
2023-03-26T08:14:51.846Z,10.03
2023-03-26T08:17:40.694Z,10.02
2023-03-26T08:20:35.869Z,10.61
2023-03-26T08:23:09.588Z,9.67
2023-03-26T08:25:42.635Z,10.09
2023-03-26T08:28:42.572Z,10.62
2023-03-26T08:31:11.108Z,10.57
2023-03-26T08:33:41.018Z,10.83
2023-03-26T08:36:09.651Z,10.71
2023-03-26T08:38:36.760Z,9.85
2023-03-26T08:41:12.564Z,9.58
2023-03-26T08:43:48.361Z,10.47
2023-03-26T08:46:36.789Z,9.38
2023-03-26T08:49:25.877Z,10.50
2023-03-26T08:52:12.560Z,10.85
2023-03-26T08:54:57.202Z,11.16
2023-03-26T08:57:37.949Z,11.48
2023-03-26T09:00:26.657Z,11.35
2023-03-26T09:03:21.375Z,11.65
2023-03-26T09:06:11.931Z,11.82
2023-03-26T09:09:19.236Z,11.91
2023-03-26T09:11:58.513Z,11.86
2023-03-26T09:14:53.244Z,11.21
2023-03-26T09:17:23.252Z,11.32
2023-03-26T09:20:02.513Z,11.71
2023-03-26T09:23:01.888Z,11.29
2023-03-26T09:25:56.814Z,10.95
2023-03-26T09:28:42.527Z,10.92
2023-03-26T09:31:46.471Z,9.82
2023-03-26T09:34:43.104Z,8.72
2023-03-26T09:37:27.097Z,8.43
2023-03-26T09:40:05.105Z,8.04
2023-03-26T09:42:34.947Z,8.86
2023-03-26T09:45:14.144Z,8.01
2023-03-26T09:48:08.959Z,6.91
2023-03-26T09:50:44.965Z,6.86
2023-03-26T09:53:21.025Z,7.45
2023-03-26T09:55:56.791Z,7.70
2023-03-26T09:58:47.216Z,7.73
2023-03-26T10:01:17.243Z,7.54
2023-03-26T10:03:56.687Z,8.08
2023-03-26T10:06:44.915Z,8.14
2023-03-26T10:09:24.183Z,9.21
2023-03-26T10:12:09.713Z,9.40
2023-03-26T10:14:44.463Z,9.00
2023-03-26T10:17:26.660Z,7.72
2023-03-26T10:20:18.546Z,7.64
2023-03-26T10:23:12.101Z,7.81
2023-03-26T10:26:17.848Z,7.17
2023-03-26T10:28:56.905Z,7.62
2023-03-26T10:31:35.803Z,7.46
2023-03-26T10:34:28.747Z,7.28
2023-03-26T10:37:10.089Z,8.15
2023-03-26T10:39:50.905Z,8.95
2023-03-26T10:42:20.950Z,8.80
2023-03-26T10:45:19.011Z,8.23
2023-03-26T10:48:02.211Z,8.71
2023-03-26T10:51:26.402Z,7.97
2023-03-26T10:54:03.537Z,8.04
2023-03-26T10:56:40.248Z,8.48
2023-03-26T10:59:08.845Z,8.86
2023-03-26T11:02:08.069Z,8.81
2023-03-26T11:04:49.590Z,9.76
2023-03-26T11:07:25.302Z,10.33
2023-03-26T11:10:25.780Z,10.80
2023-03-26T11:13:18.572Z,9.51
2023-03-26T11:16:02.923Z,8.51
2023-03-26T11:18:47.766Z,9.02
2023-03-26T11:21:32.523Z,9.22
2023-03-26T11:24:40.362Z,9.46
2023-03-26T11:27:14.987Z,9.80
2023-03-26T11:30:13.904Z,10.47
2023-03-26T11:32:48.509Z,8.45
2023-03-26T11:35:40.889Z,8.94
2023-03-26T11:38:13.961Z,8.24
2023-03-26T11:40:43.104Z,8.84
2023-03-26T11:43:21.525Z,8.47
2023-03-26T11:45:49.083Z,7.95
2023-03-26T11:48:32.066Z,8.09
2023-03-26T11:51:11.142Z,8.24
2023-03-26T11:53:46.937Z,9.05
2023-03-26T11:56:38.236Z,7.73
2023-03-26T11:59:12.857Z,8.08
2023-03-26T12:01:50.581Z,7.87
2023-03-26T12:04:31.453Z,7.67
2023-03-26T12:07:09.192Z,7.83
2023-03-26T12:09:36.414Z,8.37
2023-03-26T12:12:04.329Z,8.08
2023-03-26T12:14:34.414Z,9.07
2023-03-26T12:17:07.340Z,9.05
2023-03-26T12:19:39.627Z,8.87
2023-03-26T12:22:12.214Z,8.89
2023-03-26T12:24:39.599Z,8.89
2023-03-26T12:27:20.868Z,8.68
2023-03-26T12:29:52.171Z,9.12
2023-03-26T12:32:19.216Z,9.59
2023-03-26T12:34:47.643Z,9.37
2023-03-26T12:37:50.286Z,10.28
2023-03-26T12:40:36.013Z,10.57
2023-03-26T12:44:56.578Z,10.11
2023-03-26T12:47:55.561Z,10.88
2023-03-26T12:48:42.190Z,10.28
2023-03-26T12:51:18.957Z,11.06
2023-03-26T12:54:03.259Z,11.48
2023-03-26T12:56:38.562Z,11.19
2023-03-26T12:59:15.853Z,11.83
2023-03-26T13:02:16.924Z,11.74
2023-03-26T13:05:06.346Z,9.77
2023-03-26T13:07:54.823Z,10.02
2023-03-26T13:10:37.237Z,9.65
2023-03-26T13:13:30.098Z,10.59
2023-03-26T13:16:03.042Z,10.92
2023-03-26T13:18:56.031Z,10.24
2023-03-26T13:21:36.278Z,10.18
2023-03-26T13:24:18.552Z,9.23
2023-03-26T13:26:51.409Z,10.27
2023-03-26T13:29:38.817Z,9.34
2023-03-26T13:32:18.376Z,9.11
2023-03-26T13:35:24.549Z,8.88
2023-03-26T13:38:10.225Z,9.84
2023-03-26T13:40:52.605Z,10.46
2023-03-26T13:43:41.158Z,10.20
2023-03-26T13:46:27.003Z,10.14
2023-03-26T13:49:09.377Z,10.43
2023-03-26T13:51:50.434Z,10.60
2023-03-26T13:54:26.494Z,11.09
2023-03-26T13:57:10.176Z,11.15
2023-03-26T13:59:57.555Z,10.21
2023-03-26T14:02:30.845Z,9.92
2023-03-26T14:05:02.231Z,10.17
2023-03-26T14:07:34.628Z,9.23
2023-03-26T14:10:12.530Z,9.78
2023-03-26T14:13:00.789Z,9.78
2023-03-26T14:15:58.037Z,10.03
2023-03-26T14:18:31.668Z,10.30
2023-03-26T14:21:01.812Z,10.06
2023-03-26T14:23:53.348Z,10.30
2023-03-26T14:26:44.381Z,9.58
2023-03-26T14:29:57.133Z,9.95
2023-03-26T14:32:52.964Z,10.37
2023-03-26T14:35:41.818Z,10.55
2023-03-26T14:38:50.569Z,10.39
2023-03-26T14:41:24.540Z,10.74
2023-03-26T14:44:19.283Z,11.35
2023-03-26T14:46:49.215Z,12.09
2023-03-26T14:49:29.288Z,11.06
2023-03-26T14:52:24.945Z,11.72
2023-03-26T14:54:54.132Z,11.80
2023-03-26T14:57:48.147Z,11.46
2023-03-26T15:00:43.241Z,11.73
2023-03-26T15:03:10.208Z,11.85
2023-03-26T15:05:49.658Z,11.26
2023-03-26T15:08:44.537Z,10.65
2023-03-26T15:11:16.457Z,11.11
2023-03-26T15:14:09.447Z,10.45
2023-03-26T15:16:45.621Z,11.35
2023-03-26T15:19:43.745Z,11.13
2023-03-26T15:22:32.729Z,10.97
2023-03-26T15:25:18.311Z,11.18
2023-03-26T15:28:03.933Z,11.13
2023-03-26T15:30:53.123Z,11.56
2023-03-26T15:33:42.111Z,11.24
2023-03-26T15:36:24.896Z,11.76
2023-03-26T15:39:11.954Z,12.02
2023-03-26T15:41:56.156Z,12.68
2023-03-26T15:44:29.386Z,12.30
2023-03-26T15:46:56.491Z,11.47
2023-03-26T15:49:49.423Z,11.66
2023-03-26T15:52:38.450Z,12.24
2023-03-26T15:55:17.750Z,11.97
2023-03-26T15:57:49.459Z,12.16
2023-03-26T16:00:23.002Z,11.56
2023-03-26T16:03:11.322Z,10.66
2023-03-26T16:05:46.310Z,10.59
2023-03-26T16:08:38.769Z,11.26
2023-03-26T16:11:10.897Z,11.53
2023-03-26T16:13:38.433Z,11.77
2023-03-26T16:16:07.114Z,11.95
2023-03-26T16:18:38.263Z,12.17
2023-03-26T16:21:30.587Z,11.76
2023-03-26T16:24:02.822Z,11.03
2023-03-26T16:26:46.365Z,11.63
2023-03-26T16:29:24.102Z,12.14
2023-03-26T16:32:10.374Z,11.11
2023-03-26T16:34:57.049Z,10.65
2023-03-26T16:37:50.315Z,11.64
2023-03-26T16:40:26.331Z,11.73
2023-03-26T16:42:59.079Z,11.49
2023-03-26T16:45:26.540Z,10.04
2023-03-26T16:48:19.747Z,10.59
2023-03-26T16:50:59.246Z,11.54
2023-03-26T16:53:30.006Z,12.24
2023-03-26T16:56:06.352Z,12.09
2023-03-26T16:58:45.001Z,12.01
2023-03-26T17:01:46.275Z,11.83
2023-03-26T17:04:23.642Z,11.87
2023-03-26T17:06:56.985Z,11.90
2023-03-26T17:09:46.849Z,11.70
2023-03-26T17:12:21.273Z,10.67
2023-03-26T17:14:51.199Z,9.79
2023-03-26T17:17:27.290Z,9.72
2023-03-26T17:19:54.451Z,9.55
2023-03-26T17:22:30.730Z,10.01
2023-03-26T17:25:35.902Z,10.23
2023-03-26T17:29:14.714Z,10.82
2023-03-26T17:32:02.493Z,10.61
2023-03-26T17:34:49.803Z,10.33
2023-03-26T17:37:16.893Z,10.69
2023-03-26T17:39:44.266Z,11.01
2023-03-26T17:42:34.203Z,11.02
2023-03-26T17:45:25.226Z,11.38
2023-03-26T17:48:00.593Z,11.33
2023-03-26T17:50:31.033Z,11.25
2023-03-26T17:53:05.385Z,10.78
2023-03-26T17:55:34.491Z,10.08
2023-03-26T17:58:03.084Z,9.87
2023-03-26T18:00:34.538Z,9.81
2023-03-26T18:03:30.846Z,10.12
2023-03-26T18:06:08.007Z,10.57
2023-03-26T18:09:08.576Z,10.22
2023-03-26T18:12:01.156Z,9.42
2023-03-26T18:15:16.956Z,9.56
2023-03-26T18:17:46.733Z,9.89
2023-03-26T18:20:24.903Z,10.11
2023-03-26T18:22:52.330Z,9.54
2023-03-26T18:25:24.004Z,9.22
2023-03-26T18:27:52.236Z,9.73
2023-03-26T18:30:22.404Z,9.89
2023-03-26T18:33:12.813Z,9.85
2023-03-26T18:35:46.938Z,9.94
2023-03-26T18:38:18.863Z,10.32
2023-03-26T18:41:03.231Z,7.49
2023-03-26T18:43:34.826Z,8.31
2023-03-26T18:46:03.606Z,7.96
2023-03-26T18:48:30.926Z,7.28
2023-03-26T18:51:06.330Z,7.72
2023-03-26T18:53:39.272Z,7.71
2023-03-26T18:56:35.644Z,7.76
2023-03-26T18:59:07.234Z,8.03
2023-03-26T19:01:37.548Z,8.20
2023-03-26T19:04:06.259Z,8.61
2023-03-26T19:06:38.430Z,7.88
2023-03-26T19:09:13.420Z,8.22
2023-03-26T19:11:45.622Z,8.45
2023-03-26T19:14:17.796Z,8.07
2023-03-26T19:16:56.887Z,8.79
2023-03-26T19:19:26.836Z,8.94
2023-03-26T19:21:55.685Z,8.20
2023-03-26T19:24:24.092Z,8.66
2023-03-26T19:26:51.242Z,7.42
2023-03-26T19:29:30.694Z,6.62
2023-03-26T19:32:17.661Z,6.33
2023-03-26T19:34:45.653Z,6.94
2023-03-26T19:37:23.291Z,7.03
2023-03-26T19:39:54.418Z,6.74
2023-03-26T19:42:26.795Z,7.62
2023-03-26T19:44:54.115Z,7.25
2023-03-26T19:47:35.336Z,7.12
2023-03-26T19:50:26.441Z,7.28
2023-03-26T19:53:16.682Z,7.13
2023-03-26T19:55:58.906Z,6.63
2023-03-26T19:58:27.024Z,7.65
2023-03-26T20:00:56.425Z,7.33
2023-03-26T20:03:28.731Z,7.17
2023-03-26T20:05:56.986Z,7.03
2023-03-26T20:08:27.386Z,7.76
2023-03-26T20:10:56.174Z,8.27
2023-03-26T20:13:23.574Z,7.94
2023-03-26T20:16:18.418Z,8.67
2023-03-26T20:18:46.274Z,9.03
2023-03-26T20:21:13.619Z,9.16
2023-03-26T20:23:41.073Z,9.53
2023-03-26T20:26:15.348Z,8.69
2023-03-26T20:28:48.268Z,9.14
2023-03-26T20:31:25.297Z,9.41
2023-03-26T20:33:53.131Z,8.47
2023-03-26T20:36:33.455Z,8.91
2023-03-26T20:39:24.805Z,9.55
2023-03-26T20:41:53.125Z,8.17
2023-03-26T20:44:21.274Z,7.78
2023-03-26T20:46:48.760Z,8.20
2023-03-26T20:49:15.951Z,7.47
2023-03-26T20:51:43.832Z,7.83
2023-03-26T20:54:16.022Z,7.95
2023-03-26T20:56:43.330Z,7.93
2023-03-26T20:59:11.747Z,6.59
2023-03-26T21:01:38.995Z,7.72
2023-03-26T21:04:08.226Z,8.37
2023-03-26T21:06:38.647Z,8.45
2023-03-26T21:09:06.105Z,8.35
2023-03-26T21:11:50.136Z,7.38
2023-03-26T21:14:24.858Z,7.38
2023-03-26T21:16:52.701Z,8.49
2023-03-26T21:19:20.402Z,8.48
2023-03-26T21:21:49.562Z,8.07
2023-03-26T21:24:24.390Z,8.93
2023-03-26T21:26:59.301Z,9.22
2023-03-26T21:29:27.527Z,9.00
2023-03-26T21:31:55.403Z,9.03
2023-03-26T21:34:22.896Z,9.27
2023-03-26T21:36:50.707Z,9.14
2023-03-26T21:39:18.389Z,8.92
2023-03-26T21:41:48.403Z,8.22
2023-03-26T21:44:33.895Z,8.48
2023-03-26T21:47:01.415Z,9.18
2023-03-26T21:49:28.934Z,8.14
2023-03-26T21:51:56.430Z,8.83
2023-03-26T21:54:30.999Z,8.97
2023-03-26T21:57:42.753Z,9.29
2023-03-26T22:00:11.883Z,9.94
2023-03-26T22:03:06.545Z,9.50
2023-03-26T22:05:55.409Z,9.39
2023-03-26T22:08:22.407Z,9.04
2023-03-26T22:10:49.406Z,9.79
2023-03-26T22:13:16.492Z,9.95
2023-03-26T22:15:45.023Z,10.01
2023-03-26T22:18:12.106Z,9.80
2023-03-26T22:20:39.332Z,9.85
2023-03-26T22:23:08.266Z,9.58
2023-03-26T22:25:35.621Z,9.46
2023-03-26T22:28:02.866Z,9.29
2023-03-26T22:30:30.616Z,9.66
2023-03-26T22:32:59.199Z,9.19
2023-03-26T22:35:26.725Z,9.10
2023-03-26T22:38:00.871Z,9.13
2023-03-26T22:40:28.643Z,8.70
2023-03-26T22:42:56.017Z,8.57
2023-03-26T22:45:23.765Z,8.91
2023-03-26T22:47:51.241Z,7.80
2023-03-26T22:50:30.318Z,7.92
2023-03-26T22:52:57.461Z,7.93
2023-03-26T22:55:28.500Z,7.53
2023-03-26T22:57:56.444Z,7.51
2023-03-26T23:00:23.420Z,7.75
2023-03-26T23:02:50.596Z,8.33
2023-03-26T23:05:17.857Z,7.94
2023-03-26T23:07:46.194Z,7.25
2023-03-26T23:10:13.284Z,6.90
2023-03-26T23:12:40.437Z,7.28
2023-03-26T23:15:09.026Z,7.39
2023-03-26T23:17:36.222Z,7.58
2023-03-26T23:20:06.274Z,8.07
2023-03-26T23:22:35.380Z,8.26
2023-03-26T23:25:02.421Z,8.25
2023-03-26T23:27:29.621Z,8.08
2023-03-26T23:29:57.107Z,6.17
2023-03-26T23:32:25.351Z,7.45
2023-03-26T23:34:52.913Z,8.07
2023-03-26T23:37:23.467Z,7.06
2023-03-26T23:39:51.298Z,6.67
2023-03-26T23:42:29.039Z,6.71
2023-03-26T23:44:57.403Z,7.33
2023-03-26T23:47:24.811Z,8.29
2023-03-26T23:49:51.802Z,7.99
2023-03-26T23:52:18.925Z,7.80
2023-03-26T23:54:45.924Z,7.74
2023-03-26T23:57:13.040Z,8.14
2023-03-26T23:59:41.529Z,7.57
